Time;durP1;ratioP1;P1;durP2;ratioP2;P2;SDS_P1;SDS_P2;PMS_P1;PMS_P2;Temp;Humidity;BMP_temperature;BMP_pressure;BME280_temperature;BME280_humidity;BME280_pressure;Samples;Min_cycle;Max_cycle;Signal;HPM_P1;HPM_P2
2021/04/13 00:01:13;;;;;;;11.02;4.38;;;;;;;11.98;68.03;94848.19;10557946;28;20043;-82
2021/04/13 00:06:31;;;;;;;8.07;4.35;;;;;;;11.96;70.07;94845.78;10549486;28;20031;-81
2021/04/13 00:11:32;;;;;;;5.90;4.40;;;;;;;12.10;69.63;94845.97;10576285;28;20340;-81
2021/04/13 00:16:34;;;;;;;11.90;5.05;;;;;;;12.07;67.75;94849.22;10577097;28;20036;-81
2021/04/13 00:21:44;;;;;;;26.92;9.43;;;;;;;11.92;83.51;94844.69;10570442;28;20031;-82
2021/04/13 00:26:50;;;;;;;14.45;7.47;;;;;;;11.86;84.70;94848.50;10571220;28;20076;-82
2021/04/13 00:31:59;;;;;;;18.80;8.38;;;;;;;11.62;89.27;94851.88;10574035;28;20059;-81
2021/04/13 00:37:10;;;;;;;;;;;;;;;11.50;92.62;94867.53;10577042;28;20023;-81
2021/04/13 00:42:15;;;;;;;21.83;9.80;;;;;;;11.58;92.08;94860.75;10577628;28;19983;-81
2021/04/13 00:47:23;;;;;;;24.05;9.82;;;;;;;11.11;96.67;94874.38;10578163;28;20552;-81
2021/04/13 00:52:34;;;;;;;21.93;11.10;;;;;;;11.01;100.00;94879.78;10592565;27;20155;-81
2021/04/13 00:57:40;;;;;;;25.13;11.13;;;;;;;10.84;100.00;94884.63;10577883;28;20091;-82
2021/04/13 01:02:41;;;;;;;27.23;11.13;;;;;;;10.80;100.00;94886.25;10578429;28;20035;-83
2021/04/13 01:07:46;;;;;;;24.33;10.95;;;;;;;11.06;100.00;94881.66;10577971;28;20043;-82
2021/04/13 01:13:08;;;;;;;18.67;9.80;;;;;;;11.17;98.57;94885.91;10578527;28;20023;-82
2021/04/13 01:18:13;;;;;;;18.95;10.25;;;;;;;11.37;97.12;94876.19;10592714;28;20050;-82
2021/04/13 01:23:22;;;;;;;18.63;8.50;;;;;;;11.31;91.63;94878.09;10577385;28;20079;-81
2021/04/13 01:28:25;;;;;;;;;;;;;;;11.29;98.58;94883.75;10559106;28;20450;-81
2021/04/13 01:33:49;;;;;;;17.33;8.40;;;;;;;11.07;96.11;94880.56;10547406;28;20352;-80
2021/04/13 01:39:03;;;;;;;17.58;8.45;;;;;;;11.04;95.17;94884.63;10590470;28;20043;-81
2021/04/13 01:44:04;;;;;;;20.45;9.63;;;;;;;11.02;97.22;94888.66;10577156;28;20063;-81
2021/04/13 01:49:05;;;;;;;19.85;8.85;;;;;;;10.98;95.75;94882.19;10577206;28;20494;-81
2021/04/13 01:54:13;;;;;;;20.88;10.20;;;;;;;11.04;98.29;94887.31;10576634;28;20390;-82
2021/04/13 01:59:29;;;;;;;14.20;8.40;;;;;;;11.03;99.16;94883.00;10577266;28;20082;-81
2021/04/13 02:04:42;;;;;;;16.92;9.93;;;;;;;11.08;100.00;94882.19;10555105;28;20024;-81
2021/04/13 02:09:46;;;;;;;16.48;8.32;;;;;;;11.16;100.00;94880.81;10534758;28;20031;-81
2021/04/13 02:14:52;;;;;;;16.40;8.48;;;;;;;11.22;97.49;94887.78;10559101;28;20084;-82
2021/04/13 02:19:54;;;;;;;17.33;9.15;;;;;;;11.37;99.63;94879.69;10572566;28;20052;-81
2021/04/13 02:25:00;;;;;;;14.02;9.18;;;;;;;11.48;100.00;94868.88;10581630;28;20406;-82
2021/04/13 02:30:08;;;;;;;16.20;8.60;;;;;;;11.54;97.76;94867.78;10583913;28;20039;-82
2021/04/13 02:35:17;;;;;;;15.40;8.35;;;;;;;11.55;100.00;94866.69;10583883;28;20027;-82
2021/04/13 02:40:24;;;;;;;21.38;8.15;;;;;;;11.10;100.00;94872.75;10586026;28;20032;-81
2021/04/13 02:45:30;;;;;;;19.60;8.90;;;;;;;11.05;100.00;94869.28;10563086;28;20475;-80
2021/04/13 02:50:34;;;;;;;17.65;9.05;;;;;;;10.93;100.00;94874.97;10597036;27;20074;-80
2021/04/13 02:55:38;;;;;;;16.50;9.45;;;;;;;10.85;100.00;94864.75;10581281;28;20073;-80
2021/04/13 03:00:45;;;;;;;15.30;9.95;;;;;;;11.01;100.00;94870.91;10582631;28;20043;-81
2021/04/13 03:05:58;;;;;;;21.38;10.63;;;;;;;10.97;100.00;94876.03;10581952;28;20019;-81
2021/04/13 03:11:08;;;;;;;15.90;9.85;;;;;;;10.84;100.00;94877.41;10562884;28;20206;-81
2021/04/13 03:16:10;;;;;;;18.45;9.65;;;;;;;10.68;100.00;94879.28;10580950;28;20031;-80
2021/04/13 03:21:20;;;;;;;15.48;10.60;;;;;;;10.75;100.00;94869.06;10581796;28;20099;-83
2021/04/13 03:26:30;;;;;;;22.00;10.05;;;;;;;10.63;100.00;94865.03;10582476;28;20039;-82
2021/04/13 03:31:38;;;;;;;18.38;9.73;;;;;;;10.58;100.00;94857.78;10562943;28;20434;-83
2021/04/13 03:36:40;;;;;;;17.30;8.00;;;;;;;10.55;100.00;94861.81;10581943;28;20028;-84
2021/04/13 03:41:42;;;;;;;19.15;8.02;;;;;;;10.66;100.00;94861.81;10590060;27;20031;-75
2021/04/13 03:46:44;;;;;;;14.05;8.13;;;;;;;10.66;100.00;94859.94;10568325;28;20038;-75
2021/04/13 03:51:49;;;;;;;21.13;7.57;;;;;;;10.77;100.00;94860.72;10569091;28;20043;-75
2021/04/13 03:56:49;;;;;;;13.15;7.55;;;;;;;10.90;100.00;94864.75;10584398;27;20150;-76
2021/04/13 04:01:51;;;;;;;18.17;8.63;;;;;;;10.99;100.00;94873.84;10569543;28;20530;-76
2021/04/13 04:06:56;;;;;;;14.23;9.18;;;;;;;10.99;100.00;94871.16;10569357;28;20274;-75
2021/04/13 04:12:00;;;;;;;23.67;11.73;;;;;;;10.90;100.00;94873.59;10566649;28;20461;-76
2021/04/13 04:17:02;;;;;;;25.58;11.93;;;;;;;10.80;100.00;94878.19;10538788;28;20031;-76
2021/04/13 04:22:06;;;;;;;24.65;12.70;;;;;;;10.63;100.00;94871.22;10567987;28;20038;-76
2021/04/13 04:27:25;;;;;;;20.65;13.20;;;;;;;10.41;100.00;94883.03;10518872;28;20422;-76
2021/04/13 04:32:29;;;;;;;24.73;13.88;;;;;;;10.26;100.00;94891.06;10551917;28;20502;-77
2021/04/13 04:37:34;;;;;;;25.65;13.25;;;;;;;10.01;100.00;94894.53;10567707;28;20107;-75
2021/04/13 04:42:37;;;;;;;24.33;13.00;;;;;;;9.84;100.00;94897.44;10554185;28;20454;-76
2021/04/13 04:47:38;;;;;;;16.23;11.18;;;;;;;9.89;100.00;94898.25;10524443;28;20127;-76
2021/04/13 04:52:38;;;;;;;23.10;11.77;;;;;;;9.91;100.00;94896.09;10524479;28;20051;-76
2021/04/13 04:57:39;;;;;;;22.07;12.27;;;;;;;9.89;100.00;94889.38;10557729;28;20041;-75
2021/04/13 05:02:39;;;;;;;17.53;12.07;;;;;;;9.47;100.00;94885.75;10565173;28;20463;-75
2021/04/13 05:07:40;;;;;;;21.97;12.37;;;;;;;9.48;100.00;94883.88;10566537;28;20292;-75
2021/04/13 05:12:40;;;;;;;22.00;11.80;;;;;;;9.65;100.00;94884.47;10550315;28;20289;-76
2021/04/13 05:17:40;;;;;;;25.67;12.80;;;;;;;9.30;100.00;94869.84;10524698;28;20028;-76
2021/04/13 05:22:41;;;;;;;26.33;14.50;;;;;;;9.31;100.00;94858.06;10525007;28;20046;-75
2021/04/13 05:27:42;;;;;;;20.77;14.25;;;;;;;9.53;100.00;94854.38;10543692;28;20277;-75
2021/04/13 05:32:43;;;;;;;25.95;15.25;;;;;;;9.80;100.00;94864.13;10567280;28;20498;-76
2021/04/13 05:37:43;;;;;;;31.73;19.20;;;;;;;9.86;100.00;94865.75;10549675;28;20032;-77
2021/04/13 05:42:44;;;;;;;25.90;18.38;;;;;;;10.08;100.00;94858.28;10567120;28;20027;-77
2021/04/13 05:47:45;;;;;;;31.25;18.88;;;;;;;10.40;100.00;94854.56;10549072;28;20023;-76
2021/04/13 05:52:46;;;;;;;28.63;14.63;;;;;;;10.50;100.00;94858.34;10567525;28;20048;-76
2021/04/13 05:57:49;;;;;;;27.35;18.52;;;;;;;10.59;100.00;94849.47;10535635;28;20036;-76
2021/04/13 06:02:50;;;;;;;22.48;12.82;;;;;;;10.76;100.00;94840.31;10557042;28;20039;-76
2021/04/13 06:07:51;;;;;;;25.23;14.25;;;;;;;10.71;100.00;94830.34;10575582;28;20031;-76
2021/04/13 06:12:55;;;;;;;20.75;13.45;;;;;;;10.69;100.00;94829.81;10576895;28;20033;-76
2021/04/13 06:17:56;;;;;;;28.20;14.18;;;;;;;10.69;100.00;94829.81;10559928;28;20034;-76
2021/04/13 06:22:58;;;;;;;26.00;15.75;;;;;;;10.46;100.00;94839.25;10578177;28;20035;-76
2021/04/13 06:27:59;;;;;;;26.17;15.07;;;;;;;10.67;100.00;94804.28;10577679;28;20459;-76
2021/04/13 06:33:01;;;;;;;22.75;11.80;;;;;;;10.76;100.00;94781.16;10578651;28;20092;-76
2021/04/13 06:38:07;;;;;;;22.98;11.55;;;;;;;10.96;100.00;94748.03;10577482;28;20504;-76
2021/04/13 06:43:16;;;;;;;23.00;11.20;;;;;;;11.31;100.00;94750.84;10577152;28;20131;-76
2021/04/13 06:48:16;;;;;;;24.15;11.48;;;;;;;11.42;100.00;94765.84;10576623;28;20102;-76
2021/04/13 06:53:28;;;;;;;22.70;12.33;;;;;;;11.26;100.00;94789.31;10574893;28;20052;-76
2021/04/13 06:58:38;;;;;;;18.10;10.38;;;;;;;11.25;100.00;94787.72;10575640;28;20402;-76
2021/04/13 07:03:53;;;;;;;23.17;10.80;;;;;;;11.16;100.00;94789.38;10575600;28;20039;-76
2021/04/13 07:09:11;;;;;;;15.80;11.13;;;;;;;11.27;100.00;94775.59;10573969;28;20031;-76
2021/04/13 07:14:19;;;;;;;27.63;9.90;;;;;;;11.16;100.00;94770.53;10573798;28;20837;-75
2021/04/13 07:19:22;;;;;;;21.23;9.90;;;;;;;11.47;100.00;94768.50;10571016;28;20027;-75
2021/04/13 07:24:27;;;;;;;20.00;8.38;;;;;;;11.77;100.00;94753.25;10571695;28;20051;-76
2021/04/13 07:29:34;;;;;;;24.98;8.82;;;;;;;12.52;100.00;94745.94;10570949;28;20510;-76
2021/04/13 07:34:36;;;;;;;20.15;7.15;;;;;;;13.23;100.00;94748.88;10571296;28;20024;-76
2021/04/13 07:39:39;;;;;;;17.88;5.95;;;;;;;13.88;100.00;94742.09;10570551;28;20092;-76
2021/04/13 07:44:51;;;;;;;29.15;7.50;;;;;;;14.72;100.00;94740.44;10570935;28;20038;-76
2021/04/13 07:49:57;;;;;;;12.43;4.53;;;;;;;15.55;100.00;94748.53;10570593;28;20047;-76
2021/04/13 07:55:55;;;;;;;16.00;6.40;;;;;;;16.19;100.00;94726.75;10570370;28;20479;-76
2021/04/13 08:00:57;;;;;;;18.10;5.03;;;;;;;16.65;94.15;94724.78;10398574;28;20041;-76
2021/04/13 08:06:24;;;;;;;11.68;5.30;;;;;;;17.12;83.08;94726.28;10530746;28;20115;-76
2021/04/13 08:11:25;;;;;;;12.97;5.57;;;;;;;17.28;79.68;94718.50;10568966;28;20114;-76
2021/04/13 08:16:33;;;;;;;21.43;6.73;;;;;;;17.82;81.09;94713.63;10541807;28;20429;-76
2021/04/13 08:21:35;;;;;;;21.83;6.50;;;;;;;18.10;81.77;94718.75;10526515;28;20028;-76
2021/04/13 08:26:41;;;;;;;13.80;5.18;;;;;;;17.86;76.96;94714.59;10526784;28;20487;-77
2021/04/13 08:37:22;;;;;;;15.07;5.85;;;;;;;17.58;85.24;94708.63;10525786;28;20028;-76
2021/04/13 08:42:33;;;;;;;12.35;5.00;;;;;;;17.32;85.83;94697.75;10525538;28;20024;-77
2021/04/13 08:47:36;;;;;;;11.55;4.32;;;;;;;17.15;85.64;94693.06;10525107;28;20452;-77
2021/04/13 08:52:51;;;;;;;20.92;6.13;;;;;;;17.21;87.87;94689.09;10525263;28;20047;-76
2021/04/13 08:58:12;;;;;;;25.05;4.75;;;;;;;17.46;85.97;94698.41;10525880;28;20032;-77
2021/04/13 09:03:42;;;;;;;11.13;4.60;;;;;;;17.38;80.67;94696.47;10541715;28;20076;-76
2021/04/13 09:08:58;;;;;;;17.90;6.55;;;;;;;17.31;79.23;94694.22;10516417;28;20052;-76
2021/04/13 09:14:09;;;;;;;19.77;8.15;;;;;;;17.03;87.72;94680.09;10526677;28;20024;-76
2021/04/13 09:19:25;;;;;;;21.10;7.95;;;;;;;16.70;88.41;94677.72;10528148;28;20151;-76
2021/04/13 09:24:42;;;;;;;16.73;7.07;;;;;;;16.41;88.24;94679.03;10528085;28;20161;-77
2021/04/13 09:29:49;;;;;;;19.67;8.18;;;;;;;16.49;96.54;94680.19;10526711;28;20032;-76
2021/04/13 09:34:50;;;;;;;20.10;8.23;;;;;;;15.96;99.13;94677.16;10509447;28;20376;-76
2021/04/13 09:39:50;;;;;;;21.90;7.83;;;;;;;15.90;100.00;94672.97;10527436;28;20097;-76
2021/04/13 09:45:15;;;;;;;23.52;7.13;;;;;;;15.53;100.00;94674.88;10509940;28;20035;-76
2021/04/13 09:50:31;;;;;;;15.60;6.45;;;;;;;15.37;100.00;94666.31;10527096;28;20052;-76
2021/04/13 09:55:56;;;;;;;24.73;10.23;;;;;;;15.37;100.00;94674.44;10527423;28;20040;-77
2021/04/13 10:00:56;;;;;;;17.83;7.78;;;;;;;15.29;100.00;94670.53;10527303;28;20024;-76
2021/04/13 10:05:59;;;;;;;25.90;7.60;;;;;;;15.03;100.00;94675.72;10527411;28;20016;-76
2021/04/13 10:11:09;;;;;;;19.20;7.97;;;;;;;14.46;100.00;94676.78;10526826;28;20050;-77
2021/04/13 10:16:32;;;;;;;20.90;9.55;;;;;;;14.14;100.00;94674.94;10523606;28;20028;-77
2021/04/13 10:21:35;;;;;;;30.42;9.00;;;;;;;14.04;100.00;94686.72;10523340;28;20024;-77
2021/04/13 10:26:54;;;;;;;18.88;8.52;;;;;;;13.91;100.00;94674.78;10522948;28;20024;-76
2021/04/13 10:31:57;;;;;;;20.38;10.25;;;;;;;13.74;100.00;94691.50;10522839;28;20028;-76
2021/04/13 10:37:16;;;;;;;21.48;7.75;;;;;;;13.36;100.00;94688.84;10537877;28;20135;-76
2021/04/13 10:42:28;;;;;;;24.80;10.48;;;;;;;13.00;100.00;94689.28;10568840;28;20031;-76
2021/04/13 10:47:37;;;;;;;27.63;11.85;;;;;;;12.73;100.00;94690.69;10572180;28;20123;-76
2021/04/13 10:53:16;;;;;;;32.78;12.93;;;;;;;12.45;100.00;94689.66;10552472;28;20059;-74
2021/04/13 10:58:52;;;;;;;27.70;12.00;;;;;;;12.40;100.00;94687.00;10570687;28;20031;-75
2021/04/13 11:04:16;;;;;;;32.97;14.70;;;;;;;12.39;100.00;94680.81;10546411;28;20031;-75
2021/04/13 11:09:23;;;;;;;35.22;15.45;;;;;;;12.33;100.00;94681.94;10570858;28;20031;-75
2021/04/13 11:14:38;;;;;;;30.75;15.27;;;;;;;12.45;100.00;94679.66;10539366;28;20047;-75
2021/04/13 11:20:08;;;;;;;33.65;13.90;;;;;;;12.30;100.00;94658.28;10510312;28;20111;-75
2021/04/13 11:25:26;;;;;;;27.55;12.98;;;;;;;12.12;100.00;94652.50;10528063;28;20038;-75
2021/04/13 11:30:56;;;;;;;22.63;10.88;;;;;;;12.25;100.00;94652.91;10527719;28;20515;-76
2021/04/13 11:36:07;;;;;;;22.50;11.20;;;;;;;12.13;100.00;94642.56;10510350;28;20036;-75
2021/04/13 11:41:20;;;;;;;21.48;10.35;;;;;;;12.02;100.00;94649.13;10527184;28;20028;-75
2021/04/13 11:46:47;;;;;;;26.60;10.80;;;;;;;12.26;100.00;94643.75;10527174;28;20191;-75
2021/04/13 11:51:56;;;;;;;19.30;9.35;;;;;;;12.35;100.00;94650.13;10507465;28;20190;-75
2021/04/13 11:57:11;;;;;;;22.77;10.55;;;;;;;12.46;100.00;94648.94;10526165;28;20028;-75
2021/04/13 12:02:28;;;;;;;12.60;7.90;;;;;;;12.54;100.00;94644.00;10526526;28;20100;-75
2021/04/13 12:07:46;;;;;;;13.88;8.43;;;;;;;12.27;100.00;94642.69;10526159;28;20020;-75
2021/04/13 12:12:48;;;;;;;;;;;;;;;12.18;100.00;94620.13;10526293;28;20028;-75
2021/04/13 12:17:53;;;;;;;16.20;7.70;;;;;;;11.73;100.00;94615.69;10526384;28;19967;-76
2021/04/13 12:23:06;;;;;;;19.27;7.40;;;;;;;11.61;100.00;94591.03;10525634;28;20701;-76
2021/04/13 12:28:10;;;;;;;14.25;6.50;;;;;;;11.78;100.00;94585.22;10525498;28;20051;-76
2021/04/13 12:33:25;;;;;;;13.15;4.55;;;;;;;11.85;100.00;94566.06;10540950;28;20048;-76
2021/04/13 12:38:37;;;;;;;16.63;4.40;;;;;;;11.63;100.00;94553.88;10507196;28;20699;-76
2021/04/13 12:43:43;;;;;;;12.80;4.65;;;;;;;11.39;100.00;94554.63;10524951;28;20728;-76
2021/04/13 12:48:46;;;;;;;14.35;6.60;;;;;;;11.53;100.00;94546.69;10506836;28;20185;-76
2021/04/13 12:53:47;;;;;;;12.85;4.53;;;;;;;11.69;100.00;94528.50;10524263;28;20451;-75
2021/04/13 12:58:47;;;;;;;7.10;3.70;;;;;;;11.74;100.00;94523.06;10524425;28;20036;-75
2021/04/13 13:03:48;;;;;;;8.05;4.45;;;;;;;12.02;100.00;94509.84;10523907;28;20094;-76
2021/04/13 13:09:04;;;;;;;11.17;4.77;;;;;;;12.17;100.00;94508.06;10505362;28;20542;-76
2021/04/13 13:14:06;;;;;;;16.17;5.40;;;;;;;12.21;100.00;94517.16;10524326;28;20103;-76
2021/04/13 13:19:08;;;;;;;8.20;4.72;;;;;;;12.34;100.00;94511.09;10523791;28;20023;-75
2021/04/13 13:24:31;;;;;;;11.52;5.68;;;;;;;12.37;100.00;94515.88;10506144;28;20024;-76
2021/04/13 13:29:31;;;;;;;9.40;5.05;;;;;;;12.76;100.00;94498.63;10523422;28;20039;-76
2021/04/13 13:34:32;;;;;;;11.50;4.87;;;;;;;13.08;100.00;94505.16;10523805;28;20115;-76
2021/04/13 13:39:33;;;;;;;9.50;4.22;;;;;;;12.96;100.00;94502.13;10524314;28;20759;-76
2021/04/13 13:44:50;;;;;;;11.10;4.10;;;;;;;12.86;100.00;94504.97;10524346;28;20024;-76
2021/04/13 13:49:56;;;;;;;9.57;4.70;;;;;;;12.96;100.00;94504.81;10524082;28;20035;-75
2021/04/13 13:55:17;;;;;;;12.88;4.30;;;;;;;12.97;100.00;94506.44;10524253;28;20040;-76
2021/04/13 14:00:47;;;;;;;6.22;4.00;;;;;;;12.91;100.00;94507.59;10523177;28;20077;-76
2021/04/13 14:05:51;;;;;;;10.23;4.32;;;;;;;12.99;100.00;94518.53;10505382;28;20814;-76
2021/04/13 14:10:53;;;;;;;11.38;5.07;;;;;;;13.04;100.00;94512.25;10523622;28;20032;-76
2021/04/13 14:15:53;;;;;;;14.77;5.40;;;;;;;13.15;100.00;94512.88;10544712;28;20032;-77
2021/04/13 14:21:03;;;;;;;6.03;4.70;;;;;;;13.19;100.00;94518.50;10534922;28;20382;-77
2021/04/13 14:26:25;;;;;;;12.05;5.18;;;;;;;13.16;100.00;94514.50;10535090;28;20429;-76
2021/04/13 14:31:25;;;;;;;9.25;4.95;;;;;;;13.12;100.00;94513.47;10545878;28;20020;-76
2021/04/13 14:36:26;;;;;;;8.93;4.97;;;;;;;13.08;100.00;94507.06;10575924;28;20023;-76
2021/04/13 14:41:26;;;;;;;11.32;4.82;;;;;;;13.04;100.00;94520.34;10575231;28;20024;-76
2021/04/13 14:46:26;;;;;;;13.53;5.70;;;;;;;12.98;100.00;94511.53;10574683;28;20026;-76
2021/04/13 14:51:27;;;;;;;16.13;7.40;;;;;;;12.71;100.00;94497.91;10574706;28;20123;-76
2021/04/13 14:56:28;;;;;;;7.33;4.80;;;;;;;12.56;100.00;94502.44;10575172;28;20297;-76
2021/04/13 15:01:29;;;;;;;8.77;4.82;;;;;;;12.36;100.00;94497.31;10575357;28;20024;-76
2021/04/13 15:06:29;;;;;;;13.38;5.30;;;;;;;12.25;100.00;94485.88;10547321;28;20085;-76
2021/04/13 15:11:30;;;;;;;16.63;5.72;;;;;;;12.14;100.00;94494.09;10532762;28;20085;-76
2021/04/13 15:16:30;;;;;;;11.03;4.77;;;;;;;11.86;100.00;94500.31;10529286;28;20502;-76
2021/04/13 15:21:31;;;;;;;13.17;5.93;;;;;;;11.88;100.00;94492.78;10528500;28;20134;-77
2021/04/13 15:26:32;;;;;;;12.90;5.43;;;;;;;11.91;100.00;94492.19;10528001;28;20031;-76
2021/04/13 15:31:32;;;;;;;12.85;6.10;;;;;;;12.01;100.00;94492.09;10528975;28;20067;-76
2021/04/13 15:36:42;;;;;;;12.47;6.07;;;;;;;11.94;100.00;94495.16;10528360;28;20051;-77
2021/04/13 15:41:52;;;;;;;14.98;6.68;;;;;;;11.96;100.00;94503.72;10510325;28;20043;-76
2021/04/13 15:46:52;;;;;;;16.25;7.50;;;;;;;11.99;100.00;94505.06;10527951;28;20027;-76
2021/04/13 15:51:54;;;;;;;14.50;7.70;;;;;;;11.93;100.00;94512.38;10527903;28;20044;-77
2021/04/13 15:56:56;;;;;;;18.77;7.45;;;;;;;11.83;100.00;94523.22;10509656;28;20645;-76
2021/04/13 16:01:58;;;;;;;16.05;9.18;;;;;;;11.75;100.00;94535.44;10562702;28;20147;-76
2021/04/13 16:06:58;;;;;;;23.42;9.15;;;;;;;11.67;100.00;94519.91;10526664;28;20758;-76
2021/04/13 16:11:59;;;;;;;17.20;9.50;;;;;;;11.58;100.00;94527.00;10525318;28;20028;-76
2021/04/13 16:16:59;;;;;;;21.13;11.27;;;;;;;11.52;100.00;94512.00;10526254;28;20107;-76
2021/04/13 16:22:00;;;;;;;16.40;7.23;;;;;;;11.42;100.00;94519.06;10540723;28;20026;-76
2021/04/13 16:27:00;;;;;;;12.07;7.33;;;;;;;11.03;100.00;94528.00;10527121;28;20262;-76
2021/04/13 16:32:16;;;;;;;12.75;7.80;;;;;;;10.98;100.00;94514.63;10508264;28;20266;-76
2021/04/13 16:37:22;;;;;;;19.48;7.75;;;;;;;10.89;100.00;94509.03;10526188;28;20024;-76
2021/04/13 16:42:29;;;;;;;13.90;7.45;;;;;;;10.87;100.00;94511.19;10525978;28;20028;-76
2021/04/13 16:47:30;;;;;;;13.25;8.90;;;;;;;10.80;100.00;94516.09;10525861;28;20107;-76
2021/04/13 16:52:38;;;;;;;12.93;8.52;;;;;;;10.79;100.00;94517.16;10502570;28;20447;-76
2021/04/13 16:57:39;;;;;;;18.35;10.05;;;;;;;10.71;100.00;94505.09;10483234;28;20480;-76
2021/04/13 17:02:59;;;;;;;20.83;9.02;;;;;;;10.76;100.00;94505.09;10512158;28;20111;-77
2021/04/13 17:08:22;;;;;;;18.10;10.48;;;;;;;10.69;100.00;94507.28;10524787;28;20024;-77
2021/04/13 17:13:32;;;;;;;21.85;12.23;;;;;;;10.67;100.00;94509.44;10524869;28;20024;-76
2021/04/13 17:18:36;;;;;;;27.35;12.65;;;;;;;10.56;100.00;94497.97;10524530;28;20127;-77
2021/04/13 17:23:43;;;;;;;28.38;14.23;;;;;;;10.56;100.00;94502.53;10524503;28;20115;-77
2021/04/13 17:28:48;;;;;;;23.40;13.93;;;;;;;10.37;100.00;94505.06;10523798;28;20093;-77
2021/04/13 17:33:49;;;;;;;23.60;12.93;;;;;;;10.12;100.00;94508.63;10482795;28;20028;-76
2021/04/13 17:39:01;;;;;;;26.83;13.00;;;;;;;10.23;100.00;94524.44;10482191;28;20418;-76
2021/04/13 17:44:21;;;;;;;28.25;14.40;;;;;;;10.12;100.00;94557.78;10482352;28;20468;-76
2021/04/13 17:49:23;;;;;;;31.42;15.93;;;;;;;10.20;100.00;94553.72;10483104;28;20506;-76
2021/04/13 17:54:24;;;;;;;28.58;17.45;;;;;;;10.08;100.00;94544.09;10503407;28;20047;-76
2021/04/13 17:59:25;;;;;;;35.08;17.60;;;;;;;9.85;100.00;94531.28;10526519;28;20032;-75
2021/04/13 18:04:33;;;;;;;30.13;17.00;;;;;;;9.81;100.00;94520.31;10529748;28;20101;-78
2021/04/13 18:09:41;;;;;;;40.75;20.90;;;;;;;9.62;100.00;94524.66;10530130;28;20092;-78
2021/04/13 18:14:50;;;;;;;44.03;24.43;;;;;;;9.60;100.00;94513.38;10530472;28;20414;-78
2021/04/13 18:19:57;;;;;;;51.60;23.48;;;;;;;9.39;100.00;94518.78;10531722;28;20043;-78
2021/04/13 18:25:00;;;;;;;56.97;30.63;;;;;;;9.17;100.00;94530.63;10531531;28;20028;-78
2021/04/13 18:30:04;;;;;;;43.97;25.27;;;;;;;9.05;100.00;94530.88;10531308;28;20038;-78
2021/04/13 18:35:12;;;;;;;36.47;22.13;;;;;;;8.92;100.00;94531.44;10530710;28;20089;-78
2021/04/13 18:40:23;;;;;;;42.95;23.35;;;;;;;9.07;100.00;94531.44;10530497;28;20093;-78
2021/04/13 18:45:28;;;;;;;38.35;23.50;;;;;;;9.18;100.00;94526.88;10529208;28;20058;-78
2021/04/13 18:50:45;;;;;;;34.38;19.30;;;;;;;9.11;100.00;94546.97;10520999;28;20052;-80
2021/04/13 18:55:55;;;;;;;36.60;21.75;;;;;;;9.11;100.00;94555.84;10512890;28;20055;-80
2021/04/13 19:01:08;;;;;;;38.22;20.90;;;;;;;9.12;100.00;94562.78;10496666;28;20059;-81
2021/04/13 19:06:19;;;;;;;37.42;21.20;;;;;;;8.93;100.00;94581.28;10495260;28;20046;-84
2021/04/13 19:11:27;;;;;;;31.77;17.98;;;;;;;8.95;100.00;94570.28;10513043;28;20486;-80
2021/04/13 19:16:38;;;;;;;32.03;17.97;;;;;;;9.14;100.00;94573.22;10474301;28;20017;-80
2021/04/13 19:21:49;;;;;;;17.48;9.68;;;;;;;8.94;100.00;94561.44;10473792;28;20815;-80
2021/04/13 19:26:57;;;;;;;10.30;6.43;;;;;;;8.63;100.00;94528.44;10499926;28;20078;-79
2021/04/13 19:32:11;;;;;;;8.83;5.37;;;;;;;8.36;100.00;94522.19;10492051;28;20028;-79
2021/04/13 19:37:41;;;;;;;10.57;5.68;;;;;;;8.36;100.00;94519.53;10495390;28;20479;-83
2021/04/13 19:42:45;;;;;;;9.23;4.97;;;;;;;8.45;100.00;94508.31;10479887;28;20600;-84
2021/04/13 19:47:53;;;;;;;7.03;3.97;;;;;;;8.26;100.00;94519.50;10513529;28;20479;-83
2021/04/13 19:53:00;;;;;;;12.75;5.57;;;;;;;8.22;100.00;94515.75;10479357;28;20052;-83
2021/04/13 19:58:03;;;;;;;18.35;11.20;;;;;;;8.29;100.00;94524.34;10538701;28;20036;-83
2021/04/13 20:03:05;;;;;;;19.67;11.45;;;;;;;8.38;100.00;94519.25;10539298;28;20509;-83
2021/04/13 20:08:08;;;;;;;20.63;10.70;;;;;;;8.43;100.00;94510.41;10520625;28;20020;-83
2021/04/13 20:13:17;;;;;;;16.15;8.38;;;;;;;8.53;100.00;94507.81;10538246;28;20024;-83
2021/04/13 20:18:21;;;;;;;20.80;8.90;;;;;;;8.44;100.00;94512.03;10520144;28;20107;-83
2021/04/13 20:23:24;;;;;;;17.48;9.05;;;;;;;8.43;100.00;94510.41;10520231;28;20031;-83
2021/04/13 20:28:33;;;;;;;22.63;10.55;;;;;;;8.63;100.00;94497.09;10522881;28;20052;-83
2021/04/13 20:34:27;;;;;;;23.13;11.70;;;;;;;8.75;100.00;94470.06;10495687;28;20024;-84
2021/04/13 20:39:33;;;;;;;22.08;10.60;;;;;;;8.78;100.00;94471.41;10495861;28;20036;-83
2021/04/13 20:44:34;;;;;;;20.55;10.13;;;;;;;8.88;100.00;94474.88;10477523;28;20047;-84
2021/04/13 20:49:46;;;;;;;18.95;10.93;;;;;;;8.96;100.00;94486.13;10494910;28;20111;-83
2021/04/13 20:54:55;;;;;;;17.50;10.65;;;;;;;8.92;100.00;94467.09;10522788;28;20055;-83
2021/04/13 20:59:56;;;;;;;19.65;10.95;;;;;;;8.89;100.00;94467.66;10560583;28;20030;-83
2021/04/13 21:05:04;;;;;;;19.70;8.90;;;;;;;8.51;100.00;94477.78;10578632;28;20031;-84
2021/04/13 21:10:10;;;;;;;13.15;7.38;;;;;;;8.63;100.00;94480.22;10514557;28;20497;-83
2021/04/13 21:15:32;;;;;;;13.48;8.18;;;;;;;8.52;100.00;94474.06;10494734;28;20028;-84
2021/04/13 21:20:32;;;;;;;14.32;7.68;;;;;;;8.49;100.00;94480.75;10526540;28;20032;-84
2021/04/13 21:25:39;;;;;;;15.88;8.88;;;;;;;8.38;100.00;94479.09;10534496;28;20111;-82
2021/04/13 21:30:39;;;;;;;17.83;9.82;;;;;;;8.56;100.00;94464.41;10529696;28;20032;-81
2021/04/13 21:36:10;;;;;;;26.10;11.57;;;;;;;8.65;100.00;94473.53;10532359;28;20035;-81
2021/04/13 21:41:16;;;;;;;21.00;11.35;;;;;;;8.54;100.00;94469.25;10499978;28;20430;-82
2021/04/13 21:46:25;;;;;;;18.60;11.48;;;;;;;8.42;100.00;94488.19;10531623;28;20034;-81
2021/04/13 21:51:34;;;;;;;;;;;;;;;8.29;100.00;94492.19;10531884;28;20048;-82
2021/04/13 21:56:55;;;;;;;14.45;7.13;;;;;;;8.23;100.00;94487.88;10523683;28;20011;-82
2021/04/13 22:02:00;;;;;;;12.77;5.85;;;;;;;8.34;100.00;94510.13;10525302;28;20766;-81
2021/04/13 22:07:09;;;;;;;12.05;7.50;;;;;;;8.35;100.00;94512.56;10528407;28;20020;-82
2021/04/13 22:12:15;;;;;;;33.30;17.80;;;;;;;8.48;100.00;94521.19;10539358;28;20843;-82
2021/04/13 22:17:20;;;;;;;56.28;28.08;;;;;;;8.53;100.00;94518.53;10535300;28;20109;-82
2021/04/13 22:22:32;;;;;;;58.58;29.27;;;;;;;8.71;100.00;94509.97;10538257;28;20024;-82
2021/04/13 22:27:46;;;;;;;59.13;29.17;;;;;;;8.74;100.00;94522.03;10513920;28;20024;-82
2021/04/13 22:32:52;;;;;;;66.95;33.25;;;;;;;8.81;100.00;94497.66;10531221;28;20028;-82
2021/04/13 22:38:16;;;;;;;59.97;29.50;;;;;;;8.93;100.00;94449.97;10534173;28;20081;-82
2021/04/13 22:43:38;;;;;;;58.33;28.33;;;;;;;8.93;100.00;94449.97;10519687;28;20032;-82
2021/04/13 22:48:39;;;;;;;52.42;26.42;;;;;;;8.72;100.00;94439.25;10538400;28;20032;-82
2021/04/13 22:53:42;;;;;;;51.55;26.85;;;;;;;8.76;100.00;94419.94;10537451;28;20415;-82
2021/04/13 22:58:46;;;;;;;49.25;24.83;;;;;;;8.63;100.00;94410.59;10537873;28;20040;-82
2021/04/13 23:03:47;;;;;;;47.33;23.98;;;;;;;8.60;100.00;94413.81;10536250;28;20047;-81
2021/04/13 23:08:47;;;;;;;47.97;22.60;;;;;;;8.52;100.00;94420.47;10528274;28;20629;-82
2021/04/13 23:13:48;;;;;;;54.10;25.63;;;;;;;8.55;100.00;94426.13;10529555;28;20020;-82
2021/04/13 23:18:48;;;;;;;44.30;23.27;;;;;;;8.50;100.00;94422.63;10532413;28;20035;-82
2021/04/13 23:23:49;;;;;;;54.27;22.67;;;;;;;8.46;100.00;94433.06;10535152;28;20024;-82
2021/04/13 23:28:49;;;;;;;42.13;23.08;;;;;;;8.38;100.00;94428.22;10538387;28;20028;-81